KCKM/CKM METAR and TAF weather

Enter ICAO airport designator
Station Type Date Time Source
KCKM METAR 2018/04/27 00:55 UTC NOAA

KCKM 270055Z AUTO 01005KT 10SM CLR 15/15 A2992 RMK A01


Station Type Date Time Source
KCKM Decoded METAR 2018/04/27 00:55 UTC NOAA

Station name not available
Apr 26, 2018 - 08:55 PM EDT / 2018.04.27 0055 UTC
Wind: from the N (010 degrees) at 6 MPH (5 KT):0
Visibility: 10 mile(s):0
Sky conditions: clear
Temperature: 59 F (15 C)
Dew Point: 59 F (15 C)
Relative Humidity: 100%
Pressure (altimeter): 29.92 in. Hg (1013 hPa)
ob: KCKM 270055Z AUTO 01005KT 10SM CLR 15/15 A2992 RMK A01
cycle: 1

Station Type Date Time Source
KCKM TAF UTC NOAA

Error!


Example: see airport list